EYKA/KUN METAR and TAF weather

Enter ICAO airport designator
Station Type Date Time Source
EYKA METAR 2023/02/05 12:50 UTC NOAA

EYKA 051250Z 32003KT 280V350 9999 OVC014 M05/M08 Q1036


Station Type Date Time Source
EYKA Decoded METAR 2023/02/05 12:50 UTC NOAA

Kaunas, Lithuania (EYKA) 54-54N 023-55-12E
Feb 05, 2023 - 07:50 AM EST / 2023.02.05 1250 UTC
Wind: from the NW (320 degrees) at 3 MPH (3 KT) (direction variable):0
Visibility: greater than 7 mile(s):0
Sky conditions: overcast
Temperature: 23 F (-5 C)
Dew Point: 17 F (-8 C)
Relative Humidity: 79%
Pressure (altimeter): 30.59 in. Hg (1036 hPa)
ob: EYKA 051250Z 32003KT 280V350 9999 OVC014 M05/M08 Q1036
cycle: 13

Station Type Date Time Source
EYKA TAF 2023/02/05 12:06 UTC NOAA

TAF EYKA 051100Z 0512/0612 VRB05KT 9000 OVC015
TEMPO 0512/0516 SCT020
TEMPO 0516/0520 5000 MIFG BR SCT005
BECMG 0521/0522 OVC005

Example: see airport list